Time;durP1;ratioP1;P1;durP2;ratioP2;P2;SDS_P1;SDS_P2;PMS_P1;PMS_P2;Temp;Humidity;BMP_temperature;BMP_pressure;BME280_temperature;BME280_humidity;BME280_pressure;Samples;Min_cycle;Max_cycle;Signal;HPM_P1;HPM_P2
2023/05/13 00:00:46;;;;;;;3.55;3.10;;;10.00;99.90;;;;;;5015869;28;20489;-77
2023/05/13 00:03:12;;;;;;;4.07;2.83;;;10.00;99.90;;;;;;5018324;28;20038;-77
2023/05/13 00:05:38;;;;;;;3.20;2.90;;;10.00;99.90;;;;;;5016471;28;20033;-77
2023/05/13 00:08:06;;;;;;;3.88;2.97;;;10.00;99.90;;;;;;5016433;28;20132;-77
2023/05/13 00:10:33;;;;;;;2.92;2.65;;;9.90;99.90;;;;;;5015313;28;20042;-78
2023/05/13 00:12:58;;;;;;;2.95;2.55;;;9.90;99.90;;;;;;5019317;28;20038;-77
2023/05/13 00:15:24;;;;;;;2.92;2.72;;;9.90;99.90;;;;;;5016026;28;20109;-79
2023/05/13 00:17:50;;;;;;;4.10;2.97;;;9.90;99.90;;;;;;5015794;28;20046;-77
2023/05/13 00:20:15;;;;;;;3.05;2.38;;;9.80;99.90;;;;;;5016076;28;20084;-78
2023/05/13 00:22:41;;;;;;;3.47;2.55;;;9.80;99.90;;;;;;5016354;28;20046;-79
2023/05/13 00:25:07;;;;;;;2.58;2.22;;;9.70;99.90;;;;;;5018945;28;20069;-78
2023/05/13 00:27:33;;;;;;;3.78;2.72;;;9.70;99.90;;;;;;5019003;28;20042;-78
2023/05/13 00:30:01;;;;;;;2.60;2.40;;;9.70;99.90;;;;;;5015810;28;20045;-78
2023/05/13 00:32:27;;;;;;;2.47;2.28;;;9.70;99.90;;;;;;5017518;28;20057;-78
2023/05/13 00:34:52;;;;;;;2.65;2.40;;;9.60;99.90;;;;;;5017374;28;20034;-77
2023/05/13 00:37:18;;;;;;;2.58;2.38;;;9.60;99.90;;;;;;5017545;28;20065;-77
2023/05/13 00:39:44;;;;;;;2.90;2.60;;;9.60;99.90;;;;;;5033378;28;20851;-78
2023/05/13 00:42:11;;;;;;;3.03;2.20;;;9.60;99.90;;;;;;5018023;28;20488;-78
2023/05/13 00:44:36;;;;;;;2.90;2.40;;;9.50;99.90;;;;;;5014602;28;20033;-78
2023/05/13 00:47:04;;;;;;;2.83;2.42;;;9.50;99.90;;;;;;5017636;28;20044;-78
2023/05/13 00:49:34;;;;;;;3.13;2.67;;;9.50;99.90;;;;;;5014927;28;20046;-78
2023/05/13 00:52:01;;;;;;;2.50;2.17;;;9.50;99.90;;;;;;5016066;28;20241;-78
2023/05/13 00:54:27;;;;;;;2.50;2.25;;;9.50;99.90;;;;;;5020337;28;20038;-78
2023/05/13 00:56:55;;;;;;;3.85;2.55;;;9.50;99.90;;;;;;5013788;28;20042;-78
2023/05/13 00:59:23;;;;;;;2.60;2.40;;;9.50;99.90;;;;;;5012307;28;20034;-79
2023/05/13 01:02:20;;;;;;;3.42;2.60;;;9.50;99.90;;;;;;5014567;28;20052;-78
2023/05/13 01:04:57;;;;;;;2.92;2.63;;;9.50;99.90;;;;;;5016408;28;20029;-78
2023/05/13 01:08:00;;;;;;;2.85;2.40;;;9.40;99.90;;;;;;5017723;28;20057;-78
2023/05/13 01:10:32;;;;;;;2.65;2.45;;;9.40;99.90;;;;;;5015294;28;20053;-78
2023/05/13 01:13:03;;;;;;;3.28;2.40;;;9.40;99.90;;;;;;5013086;28;20034;-78
2023/05/13 01:15:29;;;;;;;3.70;2.80;;;9.40;99.90;;;;;;5012853;28;20049;-78
2023/05/13 01:18:05;;;;;;;2.60;2.22;;;9.40;99.90;;;;;;5016133;28;20041;-78
2023/05/13 01:20:32;;;;;;;2.33;2.13;;;9.40;99.90;;;;;;5013866;28;20030;-79
2023/05/13 01:22:57;;;;;;;3.08;2.72;;;9.40;99.90;;;;;;5018043;28;20116;-78
2023/05/13 01:25:24;;;;;;;2.50;2.28;;;9.50;99.90;;;;;;5019353;28;20062;-78
2023/05/13 01:27:51;;;;;;;2.75;2.55;;;9.50;99.90;;;;;;5016525;28;20057;-79
2023/05/13 01:30:17;;;;;;;3.38;2.40;;;9.50;99.90;;;;;;5014757;28;20113;-78
2023/05/13 01:32:44;;;;;;;2.78;2.33;;;9.40;99.90;;;;;;5013378;28;20038;-78
2023/05/13 01:35:10;;;;;;;2.72;2.53;;;9.50;99.90;;;;;;5012488;28;20014;-78
2023/05/13 01:37:36;;;;;;;2.95;2.53;;;9.50;99.90;;;;;;5019488;28;20033;-78
2023/05/13 01:40:04;;;;;;;5.05;3.03;;;9.50;99.90;;;;;;5017073;28;20038;-78
2023/05/13 01:42:30;;;;;;;3.85;2.88;;;9.50;99.90;;;;;;5016250;28;20022;-78
2023/05/13 01:44:56;;;;;;;3.65;2.78;;;9.50;99.90;;;;;;5011534;28;20049;-78
2023/05/13 01:47:22;;;;;;;3.90;3.10;;;9.50;99.90;;;;;;5017564;28;20037;-78
2023/05/13 01:49:47;;;;;;;3.22;2.90;;;9.50;99.90;;;;;;5013124;28;20053;-78
2023/05/13 01:52:13;;;;;;;3.30;2.95;;;9.60;99.90;;;;;;5015215;28;20125;-78
2023/05/13 01:54:38;;;;;;;3.10;2.80;;;9.60;99.90;;;;;;5023308;28;20036;-78
2023/05/13 01:57:04;;;;;;;3.30;2.88;;;9.50;99.90;;;;;;5033980;28;20038;-79
2023/05/13 01:59:30;;;;;;;3.78;2.90;;;9.50;99.90;;;;;;5030126;28;20033;-78
2023/05/13 02:01:55;;;;;;;3.30;2.83;;;9.60;99.90;;;;;;5023886;28;20061;-78
2023/05/13 02:04:21;;;;;;;3.97;3.30;;;9.60;99.90;;;;;;5029948;28;20035;-78
2023/05/13 02:06:47;;;;;;;3.63;3.22;;;9.60;99.90;;;;;;5027670;28;20034;-80
2023/05/13 02:09:13;;;;;;;7.10;3.42;;;9.60;99.90;;;;;;5019061;28;20069;-78
2023/05/13 02:11:39;;;;;;;3.85;3.25;;;9.60;99.90;;;;;;5015299;28;20030;-77
2023/05/13 02:14:05;;;;;;;4.38;3.80;;;9.60;99.90;;;;;;5010636;28;20028;-77
2023/05/13 02:16:30;;;;;;;3.63;3.10;;;9.60;99.90;;;;;;5011093;28;20034;-77
2023/05/13 02:18:56;;;;;;;4.18;3.28;;;9.60;99.90;;;;;;5013523;28;20040;-78
2023/05/13 02:21:22;;;;;;;4.22;3.83;;;9.60;99.90;;;;;;5011078;28;20038;-77
2023/05/13 02:23:47;;;;;;;4.57;3.50;;;9.60;99.90;;;;;;5011574;28;20030;-77
2023/05/13 02:26:13;;;;;;;4.35;3.50;;;9.60;99.90;;;;;;5012708;28;20085;-78
2023/05/13 02:28:38;;;;;;;4.88;3.17;;;9.50;99.90;;;;;;5012042;28;20018;-78
2023/05/13 02:31:05;;;;;;;4.15;3.50;;;9.60;99.90;;;;;;5012827;28;20041;-77
2023/05/13 02:33:31;;;;;;;4.25;3.53;;;9.60;99.90;;;;;;5012983;28;20530;-78
2023/05/13 02:35:56;;;;;;;5.57;3.78;;;9.50;99.90;;;;;;5013139;28;20085;-77
2023/05/13 02:38:22;;;;;;;4.03;3.20;;;9.60;99.90;;;;;;5010835;28;20500;-78
2023/05/13 02:40:48;;;;;;;3.60;3.30;;;9.60;99.90;;;;;;5013521;28;20026;-77
2023/05/13 02:43:13;;;;;;;4.90;3.30;;;9.50;99.90;;;;;;5006022;28;20060;-78
2023/05/13 02:45:40;;;;;;;3.92;3.53;;;9.60;99.90;;;;;;5011317;28;20058;-77
2023/05/13 02:48:05;;;;;;;3.80;3.10;;;9.60;99.90;;;;;;5013416;28;20150;-78
2023/05/13 02:50:31;;;;;;;3.95;3.17;;;9.50;99.90;;;;;;5009943;28;20104;-78
2023/05/13 02:52:57;;;;;;;4.30;2.90;;;9.60;99.90;;;;;;5013817;28;20026;-79
2023/05/13 02:55:22;;;;;;;3.17;2.83;;;9.50;99.90;;;;;;5008656;28;20042;-78
2023/05/13 02:57:48;;;;;;;3.67;2.60;;;9.50;99.90;;;;;;5013942;28;20077;-78
2023/05/13 03:00:14;;;;;;;3.85;3.13;;;9.50;99.90;;;;;;5016432;28;20037;-78
2023/05/13 03:02:40;;;;;;;4.18;3.35;;;9.50;99.90;;;;;;5010505;28;20074;-78
2023/05/13 03:05:06;;;;;;;3.55;2.97;;;9.50;99.90;;;;;;5007364;28;20061;-78
2023/05/13 03:07:32;;;;;;;4.00;3.00;;;9.50;99.90;;;;;;5011167;28;20485;-78
2023/05/13 03:09:57;;;;;;;4.47;3.63;;;9.50;99.90;;;;;;5013189;28;20133;-78
2023/05/13 03:12:23;;;;;;;4.60;3.60;;;9.50;99.90;;;;;;5012792;28;20030;-79
2023/05/13 03:14:49;;;;;;;8.10;3.92;;;9.50;99.90;;;;;;5012195;28;20365;-78
2023/05/13 03:17:14;;;;;;;5.93;3.75;;;9.50;99.90;;;;;;5015869;28;20052;-78
2023/05/13 03:19:40;;;;;;;5.43;3.78;;;9.50;99.90;;;;;;5012776;28;20024;-77
2023/05/13 03:22:06;;;;;;;5.30;4.18;;;9.50;99.90;;;;;;5014538;28;20137;-79
2023/05/13 03:24:31;;;;;;;4.75;3.70;;;9.50;99.90;;;;;;5013060;28;20042;-77
2023/05/13 03:26:57;;;;;;;4.82;4.15;;;9.50;99.90;;;;;;5015664;28;20033;-77
2023/05/13 03:29:23;;;;;;;7.20;4.43;;;9.50;99.90;;;;;;5016359;28;20041;-78
2023/05/13 03:31:49;;;;;;;4.82;4.03;;;9.50;99.90;;;;;;5014754;28;20034;-79
2023/05/13 03:34:15;;;;;;;6.57;4.30;;;9.50;99.90;;;;;;5011930;28;20478;-77
2023/05/13 03:36:40;;;;;;;4.82;4.07;;;9.50;99.90;;;;;;5016926;28;20040;-78
2023/05/13 03:39:06;;;;;;;9.40;5.22;;;9.50;99.90;;;;;;5017631;28;20540;-78
2023/05/13 03:41:32;;;;;;;7.75;5.25;;;9.50;99.90;;;;;;5015691;28;20732;-78
2023/05/13 03:43:58;;;;;;;7.47;4.93;;;9.50;99.90;;;;;;5015872;28;20049;-77
2023/05/13 03:46:26;;;;;;;5.80;4.70;;;9.50;99.90;;;;;;5014971;28;20034;-77
2023/05/13 03:48:51;;;;;;;8.07;5.70;;;9.50;99.90;;;;;;5009862;28;20038;-78
2023/05/13 03:51:17;;;;;;;8.73;4.85;;;9.40;99.90;;;;;;5014515;28;20497;-77
2023/05/13 03:53:43;;;;;;;9.60;5.72;;;9.50;99.90;;;;;;5014627;28;20158;-78
2023/05/13 03:56:08;;;;;;;7.63;5.22;;;9.50;99.90;;;;;;5014108;28;20041;-77
2023/05/13 03:58:34;;;;;;;9.18;6.13;;;9.40;99.90;;;;;;5016050;28;20034;-78
2023/05/13 04:01:00;;;;;;;8.15;5.90;;;9.40;99.90;;;;;;5012273;28;20069;-78
2023/05/13 04:03:25;;;;;;;11.80;7.03;;;9.50;99.90;;;;;;5013622;28;20088;-78
2023/05/13 04:05:51;;;;;;;8.80;6.18;;;9.50;99.90;;;;;;5031417;28;20049;-77
2023/05/13 04:08:17;;;;;;;8.02;6.05;;;9.50;99.90;;;;;;5013026;28;20489;-78
2023/05/13 04:10:42;;;;;;;10.77;6.60;;;9.50;99.90;;;;;;5014122;28;20096;-78
2023/05/13 04:13:08;;;;;;;8.75;6.22;;;9.50;99.90;;;;;;5011135;28;20033;-78
2023/05/13 04:15:34;;;;;;;9.18;6.78;;;9.50;99.90;;;;;;5013249;28;20473;-77
2023/05/13 04:17:59;;;;;;;10.15;6.25;;;9.50;99.90;;;;;;5015073;28;20064;-77
2023/05/13 04:20:25;;;;;;;10.48;6.68;;;9.50;99.90;;;;;;5011128;28;20121;-77
2023/05/13 04:22:51;;;;;;;10.63;7.30;;;9.50;99.90;;;;;;5007735;28;20034;-78
2023/05/13 04:25:17;;;;;;;9.80;6.25;;;9.50;99.90;;;;;;5014003;28;20608;-79
2023/05/13 04:27:43;;;;;;;7.22;5.30;;;9.50;99.90;;;;;;5007224;28;20030;-78
2023/05/13 04:30:09;;;;;;;8.80;5.88;;;9.60;99.90;;;;;;5015666;28;20145;-77
2023/05/13 04:32:35;;;;;;;9.75;6.28;;;9.60;99.90;;;;;;5017590;28;20034;-78
2023/05/13 04:35:01;;;;;;;8.05;5.28;;;9.60;99.90;;;;;;5012932;28;20523;-78
2023/05/13 04:37:27;;;;;;;10.07;6.47;;;9.60;99.90;;;;;;5015279;28;20033;-77
2023/05/13 04:39:52;;;;;;;9.63;6.55;;;9.50;99.90;;;;;;5008583;28;20069;-77
2023/05/13 04:42:18;;;;;;;9.75;7.05;;;9.50;99.90;;;;;;5014465;28;20046;-77
2023/05/13 04:44:43;;;;;;;9.50;6.55;;;9.50;99.90;;;;;;5014877;28;20030;-78
2023/05/13 04:47:09;;;;;;;12.02;7.22;;;9.50;99.90;;;;;;5012643;28;20046;-78
2023/05/13 04:49:35;;;;;;;11.73;8.05;;;9.50;99.90;;;;;;5015217;28;20054;-78
2023/05/13 04:52:02;;;;;;;9.95;6.57;;;9.50;99.90;;;;;;5013836;28;20030;-78
2023/05/13 04:54:28;;;;;;;10.38;6.82;;;9.50;99.90;;;;;;5012504;28;20056;-78
2023/05/13 04:56:53;;;;;;;10.90;7.47;;;9.50;99.90;;;;;;5008989;28;20475;-78
2023/05/13 04:59:19;;;;;;;10.52;7.20;;;9.60;99.90;;;;;;5013239;28;20031;-78
2023/05/13 05:01:45;;;;;;;9.45;6.75;;;9.50;99.90;;;;;;5013216;28;20041;-78
2023/05/13 05:04:12;;;;;;;8.75;6.50;;;9.50;99.90;;;;;;5014591;28;20386;-78
2023/05/13 05:06:37;;;;;;;8.48;6.38;;;9.50;99.90;;;;;;5010310;28;20058;-78
2023/05/13 05:09:03;;;;;;;9.75;6.68;;;9.50;99.90;;;;;;5013052;28;20033;-77
2023/05/13 05:11:29;;;;;;;11.82;6.95;;;9.50;99.90;;;;;;5014883;28;20034;-77
2023/05/13 05:13:55;;;;;;;7.18;6.03;;;9.60;99.90;;;;;;5011973;28;20549;-78
2023/05/13 05:16:20;;;;;;;8.25;6.30;;;9.60;99.90;;;;;;5013893;28;20122;-77
2023/05/13 05:18:46;;;;;;;8.65;6.68;;;9.60;99.90;;;;;;5011914;28;20041;-77
2023/05/13 05:21:12;;;;;;;7.93;5.85;;;9.60;99.90;;;;;;5025580;28;20033;-78
2023/05/13 05:23:38;;;;;;;9.05;6.55;;;9.60;99.90;;;;;;5013511;28;20049;-78
2023/05/13 05:26:04;;;;;;;9.90;7.28;;;9.60;99.90;;;;;;5008435;28;20160;-77
2023/05/13 05:28:30;;;;;;;8.23;5.82;;;9.60;99.90;;;;;;5013258;28;20040;-78
2023/05/13 05:30:56;;;;;;;8.85;6.82;;;9.60;99.90;;;;;;5005136;28;20512;-78
2023/05/13 05:33:21;;;;;;;7.88;6.10;;;9.60;99.90;;;;;;5013168;28;20034;-78
2023/05/13 05:35:48;;;;;;;7.53;5.70;;;9.60;99.90;;;;;;5012690;28;20034;-78
2023/05/13 05:38:13;;;;;;;9.02;6.07;;;9.70;99.90;;;;;;5013538;28;20095;-78
2023/05/13 05:40:40;;;;;;;8.85;6.80;;;9.70;99.90;;;;;;5012082;28;20038;-78
2023/05/13 05:43:07;;;;;;;8.35;6.75;;;9.70;99.90;;;;;;5006829;28;20038;-78
2023/05/13 05:45:37;;;;;;;8.48;6.55;;;9.70;99.90;;;;;;5010286;28;20494;-78
2023/05/13 05:48:03;;;;;;;10.77;7.50;;;9.60;99.90;;;;;;5010682;28;20041;-78
2023/05/13 05:50:29;;;;;;;8.35;6.88;;;9.70;99.90;;;;;;5010517;28;20473;-78
2023/05/13 05:52:55;;;;;;;9.02;7.07;;;9.70;99.90;;;;;;5010743;28;20065;-79
2023/05/13 05:55:21;;;;;;;10.05;7.00;;;9.70;99.90;;;;;;5009338;28;20033;-78
2023/05/13 05:57:46;;;;;;;9.93;6.93;;;9.70;99.90;;;;;;5011434;28;20030;-79
2023/05/13 06:00:12;;;;;;;13.73;8.30;;;9.70;99.90;;;;;;5012063;28;20023;-78
2023/05/13 06:02:38;;;;;;;12.05;7.57;;;9.70;99.90;;;;;;5013706;28;20048;-78
2023/05/13 06:05:05;;;;;;;12.25;7.82;;;9.80;99.90;;;;;;5011097;28;20410;-78
2023/05/13 06:07:30;;;;;;;10.70;7.43;;;9.70;99.90;;;;;;5015046;28;20046;-79
2023/05/13 06:09:56;;;;;;;10.80;6.93;;;9.80;99.90;;;;;;5015358;28;20042;-78
2023/05/13 06:12:22;;;;;;;10.35;7.80;;;9.70;99.90;;;;;;5010644;28;20030;-78
2023/05/13 06:14:48;;;;;;;10.52;7.03;;;9.80;99.90;;;;;;5012594;28;20034;-78
2023/05/13 06:17:13;;;;;;;10.88;8.60;;;9.80;99.90;;;;;;5014014;28;20076;-77
2023/05/13 06:19:43;;;;;;;8.75;7.00;;;9.80;99.90;;;;;;5009037;28;20413;-77
2023/05/13 06:22:09;;;;;;;10.68;7.47;;;9.80;99.90;;;;;;5011919;28;20045;-78
2023/05/13 06:24:35;;;;;;;9.07;6.80;;;9.80;99.90;;;;;;5017399;28;20041;-78
2023/05/13 06:27:01;;;;;;;11.10;7.57;;;9.80;99.90;;;;;;5013861;28;20027;-77
2023/05/13 06:29:27;;;;;;;9.68;7.60;;;9.80;99.90;;;;;;5013461;28;20054;-78
2023/05/13 06:31:53;;;;;;;13.27;8.80;;;9.70;99.90;;;;;;5015194;28;20042;-77
2023/05/13 06:34:19;;;;;;;12.95;8.93;;;9.70;99.90;;;;;;5010429;28;20045;-77
2023/05/13 06:36:45;;;;;;;11.85;9.40;;;9.70;99.90;;;;;;5014125;28;20075;-78
2023/05/13 06:39:11;;;;;;;13.35;8.63;;;9.70;99.90;;;;;;4994114;28;20038;-77
2023/05/13 06:41:38;;;;;;;10.90;8.18;;;9.70;99.90;;;;;;5010957;28;20034;-79
2023/05/13 06:44:04;;;;;;;10.55;8.25;;;9.70;99.90;;;;;;5012128;28;20042;-77
2023/05/13 06:46:29;;;;;;;12.02;8.20;;;9.70;99.90;;;;;;4991483;28;20037;-78
2023/05/13 06:48:56;;;;;;;11.30;8.65;;;9.70;99.90;;;;;;5011513;28;20063;-78
2023/05/13 06:51:25;;;;;;;14.10;8.85;;;9.70;99.90;;;;;;5006529;28;20052;-78
2023/05/13 06:53:51;;;;;;;12.52;8.85;;;9.70;99.90;;;;;;5011315;28;20037;-78
2023/05/13 06:56:17;;;;;;;13.35;8.75;;;9.70;99.90;;;;;;5009422;28;20030;-78
2023/05/13 06:58:42;;;;;;;13.57;9.98;;;9.70;99.90;;;;;;4974142;28;20033;-78
2023/05/13 07:01:08;;;;;;;15.95;9.75;;;9.70;99.90;;;;;;4978959;28;20032;-78
2023/05/13 07:03:33;;;;;;;13.88;9.13;;;9.60;99.90;;;;;;5008654;28;20034;-78
2023/05/13 07:05:59;;;;;;;14.13;9.52;;;9.70;99.90;;;;;;5012305;28;20034;-78
2023/05/13 07:08:25;;;;;;;14.27;9.13;;;9.70;99.90;;;;;;5009882;28;20048;-78
2023/05/13 07:10:50;;;;;;;12.40;8.73;;;9.70;99.90;;;;;;5005399;28;20042;-78
2023/05/13 07:13:18;;;;;;;12.70;9.07;;;9.70;99.90;;;;;;4990049;28;20042;-78
2023/05/13 07:15:44;;;;;;;12.57;9.02;;;9.70;99.90;;;;;;5011790;28;20037;-77
2023/05/13 07:18:10;;;;;;;12.32;8.73;;;9.70;99.90;;;;;;5010488;28;20029;-78
2023/05/13 07:20:36;;;;;;;13.30;9.25;;;9.70;99.90;;;;;;5012417;28;20041;-78
2023/05/13 07:23:01;;;;;;;13.75;8.50;;;9.70;99.90;;;;;;5010431;28;20025;-78
2023/05/13 07:25:27;;;;;;;12.13;9.23;;;9.80;99.90;;;;;;5014788;28;20360;-78
2023/05/13 07:27:53;;;;;;;14.93;9.57;;;9.80;99.90;;;;;;5010112;28;20042;-78
2023/05/13 07:30:18;;;;;;;12.75;8.32;;;9.80;99.90;;;;;;5017300;28;20038;-78
2023/05/13 07:32:44;;;;;;;11.50;8.80;;;9.80;99.90;;;;;;5012927;28;20410;-78
2023/05/13 07:35:10;;;;;;;13.10;8.75;;;9.80;99.90;;;;;;5004568;28;20032;-78
2023/05/13 07:37:36;;;;;;;12.57;8.27;;;9.80;99.90;;;;;;5016476;28;20030;-78
2023/05/13 07:40:03;;;;;;;12.68;8.85;;;9.80;99.90;;;;;;5012346;28;20124;-78
2023/05/13 07:42:29;;;;;;;12.40;8.50;;;9.80;99.90;;;;;;5013789;28;20033;-78
2023/05/13 07:44:55;;;;;;;12.38;8.15;;;9.80;99.90;;;;;;5014743;28;20033;-78
2023/05/13 07:47:20;;;;;;;11.80;8.75;;;9.80;99.90;;;;;;5016595;28;20034;-78
2023/05/13 07:49:46;;;;;;;11.60;8.05;;;9.90;99.90;;;;;;4999444;28;20050;-78
2023/05/13 07:52:12;;;;;;;11.73;8.10;;;10.00;99.90;;;;;;4998708;28;20094;-76
2023/05/13 07:54:37;;;;;;;11.50;7.85;;;9.90;99.90;;;;;;4993497;28;20226;-75
2023/05/13 07:57:03;;;;;;;10.35;8.13;;;9.90;99.90;;;;;;4988734;28;20031;-78
2023/05/13 07:59:29;;;;;;;9.57;7.05;;;10.00;99.90;;;;;;4988119;28;20561;-79
2023/05/13 08:01:55;;;;;;;8.57;7.18;;;9.90;99.90;;;;;;4989543;28;20108;-77
2023/05/13 08:04:20;;;;;;;9.05;7.32;;;9.90;99.90;;;;;;4997815;28;20122;-77
2023/05/13 08:06:46;;;;;;;10.40;7.03;;;9.90;99.90;;;;;;4996152;28;20026;-77
2023/05/13 08:09:13;;;;;;;8.85;6.93;;;10.00;99.90;;;;;;4994273;28;20066;-78
2023/05/13 08:11:38;;;;;;;9.23;7.10;;;10.00;99.90;;;;;;4994905;28;20494;-78
2023/05/13 08:14:04;;;;;;;8.77;6.22;;;10.10;99.90;;;;;;4995912;28;20034;-77
2023/05/13 08:16:30;;;;;;;7.45;5.68;;;10.10;99.90;;;;;;4999169;28;20042;-78
2023/05/13 08:18:56;;;;;;;8.60;6.32;;;10.20;99.90;;;;;;4990725;28;20078;-78
2023/05/13 08:21:22;;;;;;;6.70;5.55;;;10.20;99.90;;;;;;4994523;28;20030;-77
2023/05/13 08:23:50;;;;;;;6.75;5.45;;;10.20;99.90;;;;;;4995156;28;20034;-78
2023/05/13 08:26:16;;;;;;;8.20;5.93;;;10.20;99.90;;;;;;4997532;28;20022;-78
2023/05/13 08:28:42;;;;;;;9.38;5.68;;;10.20;99.90;;;;;;4993696;28;20105;-78
2023/05/13 08:31:07;;;;;;;6.78;5.30;;;10.20;99.90;;;;;;4994872;28;20070;-78
2023/05/13 08:33:35;;;;;;;7.07;5.28;;;10.20;99.90;;;;;;4991600;28;20394;-78
2023/05/13 08:36:01;;;;;;;8.50;5.63;;;10.20;99.90;;;;;;4994838;28;20046;-78
2023/05/13 08:38:26;;;;;;;7.55;5.97;;;10.30;99.90;;;;;;4997433;28;20038;-78
2023/05/13 08:40:52;;;;;;;7.00;5.22;;;10.40;99.90;;;;;;4999228;28;20038;-77
2023/05/13 08:43:18;;;;;;;7.95;5.68;;;10.50;99.90;;;;;;4997802;28;20042;-78
2023/05/13 08:45:46;;;;;;;7.55;5.35;;;10.60;99.90;;;;;;4994721;28;20097;-79
2023/05/13 08:48:14;;;;;;;7.55;5.65;;;10.70;99.90;;;;;;4994626;28;20074;-78
2023/05/13 08:50:40;;;;;;;7.30;5.82;;;10.80;99.90;;;;;;5017250;28;20009;-79
2023/05/13 08:53:06;;;;;;;6.88;5.57;;;10.70;99.90;;;;;;5014036;28;20414;-79
2023/05/13 08:55:32;;;;;;;7.32;5.68;;;10.70;99.90;;;;;;5015045;28;20022;-79
2023/05/13 08:57:57;;;;;;;6.00;5.28;;;10.60;99.90;;;;;;5015496;28;20105;-78
2023/05/13 09:00:23;;;;;;;7.30;5.60;;;10.50;99.90;;;;;;5014149;28;20541;-78
2023/05/13 09:02:50;;;;;;;5.82;4.72;;;10.50;99.90;;;;;;5016960;28;20101;-78
2023/05/13 09:05:16;;;;;;;5.97;5.38;;;10.40;99.90;;;;;;5016430;28;20053;-78
2023/05/13 09:07:42;;;;;;;6.57;4.97;;;10.60;99.90;;;;;;5016451;28;20033;-77
2023/05/13 09:10:09;;;;;;;5.95;4.72;;;10.70;99.90;;;;;;5013580;28;20036;-78
2023/05/13 09:12:45;;;;;;;6.18;4.30;;;10.70;99.90;;;;;;5017777;28;20038;-78
2023/05/13 09:15:14;;;;;;;5.50;4.97;;;10.70;99.90;;;;;;5015557;28;20029;-79
2023/05/13 09:17:44;;;;;;;5.15;4.05;;;10.70;99.90;;;;;;5015172;28;20034;-78
2023/05/13 09:20:17;;;;;;;7.05;4.85;;;10.80;99.90;;;;;;5011395;28;20065;-78
2023/05/13 09:22:46;;;;;;;5.90;4.68;;;10.90;99.90;;;;;;5005710;28;20180;-78
2023/05/13 09:25:13;;;;;;;6.53;4.85;;;10.80;99.90;;;;;;5010690;28;20617;-78
2023/05/13 09:27:46;;;;;;;7.93;4.57;;;10.90;99.90;;;;;;5018599;28;20030;-79
2023/05/13 09:30:12;;;;;;;6.03;5.30;;;10.90;99.90;;;;;;5016309;28;20045;-77
2023/05/13 09:32:38;;;;;;;6.75;4.97;;;10.90;99.90;;;;;;5014812;28;20064;-77
2023/05/13 09:35:15;;;;;;;5.80;5.10;;;10.90;99.90;;;;;;5013596;28;20044;-78
2023/05/13 09:37:45;;;;;;;5.93;5.10;;;10.90;99.90;;;;;;5011855;28;20450;-78
2023/05/13 09:40:16;;;;;;;6.35;5.43;;;10.90;99.90;;;;;;5015308;28;20022;-77
2023/05/13 09:42:45;;;;;;;6.35;5.55;;;10.90;99.90;;;;;;5009825;28;20121;-77
2023/05/13 09:45:13;;;;;;;5.40;4.85;;;10.90;99.90;;;;;;5008904;28;20096;-78
2023/05/13 09:47:39;;;;;;;6.53;5.38;;;10.90;99.90;;;;;;5012636;28;20061;-78
2023/05/13 09:50:06;;;;;;;6.80;5.68;;;11.00;99.90;;;;;;5011155;28;20070;-76
2023/05/13 09:52:33;;;;;;;7.97;6.45;;;11.10;99.90;;;;;;5011976;28;20619;-77
2023/05/13 09:54:59;;;;;;;7.25;5.88;;;11.10;99.90;;;;;;5014786;28;20065;-79
2023/05/13 09:57:30;;;;;;;7.25;6.07;;;11.10;99.90;;;;;;5016477;28;20050;-79
2023/05/13 09:59:59;;;;;;;6.57;5.90;;;11.10;99.90;;;;;;5014427;28;20080;-79
2023/05/13 10:02:26;;;;;;;6.25;5.70;;;11.00;99.90;;;;;;5015395;28;20060;-78
2023/05/13 10:04:54;;;;;;;7.25;5.90;;;10.90;99.90;;;;;;5015117;28;20064;-79
2023/05/13 10:07:24;;;;;;;5.70;5.13;;;10.80;99.90;;;;;;4993476;28;20095;-79
2023/05/13 10:09:55;;;;;;;7.38;5.82;;;10.80;99.90;;;;;;5012272;28;20045;-79
2023/05/13 10:12:24;;;;;;;6.15;5.40;;;10.80;99.90;;;;;;5009931;28;20038;-78
2023/05/13 10:14:51;;;;;;;6.18;5.20;;;10.80;99.90;;;;;;5013314;28;20040;-79
2023/05/13 10:17:22;;;;;;;6.25;4.90;;;10.80;99.90;;;;;;4998890;28;20049;-79
2023/05/13 10:19:49;;;;;;;6.88;5.10;;;10.80;99.90;;;;;;5013192;28;20084;-79
2023/05/13 10:22:15;;;;;;;5.97;5.38;;;10.90;99.90;;;;;;5013770;28;20032;-79
2023/05/13 10:24:41;;;;;;;6.38;5.63;;;11.00;99.90;;;;;;5010506;28;20038;-78
2023/05/13 10:27:10;;;;;;;5.63;4.90;;;11.10;99.90;;;;;;5001407;28;20040;-78
2023/05/13 10:29:37;;;;;;;7.55;5.82;;;11.20;99.90;;;;;;5014109;28;20390;-78
2023/05/13 10:32:04;;;;;;;6.22;5.63;;;11.20;99.90;;;;;;5010897;28;20417;-79
2023/05/13 10:34:32;;;;;;;6.80;6.18;;;11.20;99.90;;;;;;5014498;28;20057;-79
2023/05/13 10:37:16;;;;;;;7.10;6.20;;;11.20;99.90;;;;;;5012410;28;20041;-80
2023/05/13 10:40:11;;;;;;;6.32;5.63;;;11.20;99.90;;;;;;5009508;28;20049;-79
2023/05/13 10:42:42;;;;;;;6.78;5.50;;;11.20;99.90;;;;;;5012513;28;20042;-79
2023/05/13 10:45:09;;;;;;;6.03;5.43;;;11.10;99.90;;;;;;5011635;28;20056;-79
2023/05/13 10:47:35;;;;;;;5.65;5.15;;;11.20;99.90;;;;;;5013206;28;20133;-80
2023/05/13 10:50:22;;;;;;;6.25;5.30;;;11.20;99.90;;;;;;5012566;28;20058;-79
2023/05/13 10:52:48;;;;;;;6.25;5.65;;;11.20;99.90;;;;;;5010744;28;20057;-79
2023/05/13 10:55:19;;;;;;;6.65;5.55;;;11.20;99.90;;;;;;5010499;28;20104;-80
2023/05/13 10:58:11;;;;;;;6.22;5.63;;;11.30;99.90;;;;;;5009132;28;20040;-79
2023/05/13 11:00:41;;;;;;;5.55;5.05;;;11.40;99.90;;;;;;5008016;28;20037;-79
2023/05/13 11:03:26;;;;;;;9.15;5.18;;;11.40;99.90;;;;;;5012912;28;20026;-80
2023/05/13 11:06:03;;;;;;;5.68;5.10;;;11.40;99.90;;;;;;5005212;28;20180;-79
2023/05/13 11:08:49;;;;;;;4.80;4.40;;;11.40;99.90;;;;;;5009460;28;20033;-80
2023/05/13 11:11:23;;;;;;;5.70;5.10;;;11.30;99.90;;;;;;5009999;28;20038;-80
2023/05/13 11:14:10;;;;;;;8.20;5.20;;;11.30;99.90;;;;;;5012997;28;20030;-79
2023/05/13 11:16:36;;;;;;;5.30;4.80;;;11.30;99.90;;;;;;5001145;28;20050;-79
2023/05/13 11:19:03;;;;;;;5.18;4.68;;;11.30;99.90;;;;;;5011521;28;20060;-79
2023/05/13 11:21:35;;;;;;;4.85;4.30;;;11.40;99.90;;;;;;5009032;28;20029;-80
2023/05/13 11:24:05;;;;;;;5.13;3.55;;;11.40;99.90;;;;;;5012714;28;20033;-80
2023/05/13 11:26:51;;;;;;;4.60;4.20;;;11.40;99.90;;;;;;5013469;28;20037;-78
2023/05/13 11:29:28;;;;;;;5.13;4.38;;;11.50;99.90;;;;;;5012727;28;20041;-78
2023/05/13 11:31:56;;;;;;;4.68;4.28;;;11.50;99.90;;;;;;5009918;28;20117;-78
2023/05/13 11:34:22;;;;;;;4.75;4.35;;;11.50;99.90;;;;;;5012885;28;20577;-78
2023/05/13 11:36:50;;;;;;;4.35;3.95;;;11.40;99.90;;;;;;5011178;28;20682;-78
2023/05/13 11:39:21;;;;;;;4.45;4.05;;;11.40;99.90;;;;;;5016018;28;20040;-78
2023/05/13 11:41:48;;;;;;;4.43;4.03;;;11.40;99.90;;;;;;5015647;28;20045;-78
2023/05/13 11:44:19;;;;;;;4.55;4.15;;;11.40;99.90;;;;;;5019903;28;20139;-78
2023/05/13 11:46:55;;;;;;;3.85;3.33;;;11.40;99.90;;;;;;5016346;28;20037;-78
2023/05/13 11:49:31;;;;;;;3.63;3.08;;;11.40;99.90;;;;;;5018376;28;20081;-80
2023/05/13 11:51:59;;;;;;;3.50;3.15;;;11.40;99.90;;;;;;5013679;28;20025;-80
2023/05/13 11:54:25;;;;;;;3.40;3.10;;;11.40;99.90;;;;;;5018403;28;20030;-79
2023/05/13 11:56:54;;;;;;;3.55;3.00;;;11.30;99.90;;;;;;5016599;28;20332;-80
2023/05/13 11:59:19;;;;;;;3.33;3.03;;;11.30;99.90;;;;;;5014342;28;20085;-79
2023/05/13 12:01:45;;;;;;;3.20;2.90;;;11.30;99.90;;;;;;5016899;28;20046;-79
2023/05/13 12:04:11;;;;;;;3.38;3.10;;;11.20;99.90;;;;;;5019068;28;20014;-79
2023/05/13 12:06:44;;;;;;;2.92;2.72;;;11.20;99.90;;;;;;5014186;28;20033;-80
2023/05/13 12:09:11;;;;;;;3.00;2.80;;;11.20;99.90;;;;;;5016856;28;20030;-81
2023/05/13 12:11:37;;;;;;;3.25;2.95;;;11.20;99.90;;;;;;5010711;28;20042;-84
2023/05/13 12:14:03;;;;;;;2.92;2.72;;;11.30;99.90;;;;;;5008597;28;20536;-80
2023/05/13 12:16:29;;;;;;;3.72;3.40;;;11.30;99.90;;;;;;5017214;28;20062;-80
2023/05/13 12:19:05;;;;;;;4.25;3.45;;;11.30;99.90;;;;;;5017544;28;20045;-79
2023/05/13 12:21:32;;;;;;;3.13;2.67;;;11.40;99.90;;;;;;5018917;28;20045;-79
2023/05/13 12:23:58;;;;;;;3.40;3.10;;;11.40;99.90;;;;;;5009821;28;20057;-79
2023/05/13 12:26:24;;;;;;;3.10;2.80;;;11.40;99.90;;;;;;5016085;28;20502;-79
2023/05/13 12:28:58;;;;;;;3.78;3.47;;;11.40;99.90;;;;;;5008972;28;20038;-79
2023/05/13 12:31:24;;;;;;;3.85;3.00;;;11.40;99.90;;;;;;5013455;28;20073;-79
2023/05/13 12:33:50;;;;;;;3.47;3.10;;;11.50;99.90;;;;;;5014124;28;20049;-79
2023/05/13 12:36:21;;;;;;;4.50;3.50;;;11.50;99.90;;;;;;5007570;28;20085;-79
2023/05/13 12:39:02;;;;;;;3.50;3.25;;;11.50;99.90;;;;;;5011251;28;20041;-79
2023/05/13 12:41:29;;;;;;;4.40;3.42;;;11.60;99.90;;;;;;5016015;28;20033;-80
2023/05/13 12:44:09;;;;;;;3.35;3.05;;;11.70;99.90;;;;;;5012062;28;20121;-79
2023/05/13 12:46:36;;;;;;;3.58;2.78;;;11.80;99.90;;;;;;5015358;28;20036;-80
2023/05/13 12:49:03;;;;;;;3.25;3.05;;;11.90;99.90;;;;;;5015473;28;20057;-78
2023/05/13 12:51:29;;;;;;;3.42;3.15;;;12.20;99.90;;;;;;5012437;28;20056;-80